sensor_id;sensor_type;location;lat;lon;timestamp;P1;durP1;ratioP1;P2;durP2;ratioP2
35847;SDS011;22332;51.954;20.118;2023-12-20T00:00:10;12.50;;;9.00;;
35847;SDS011;22332;51.954;20.118;2023-12-20T00:03:37;13.00;;;8.90;;
35847;SDS011;22332;51.954;20.118;2023-12-20T00:06:42;14.60;;;9.40;;
35847;SDS011;22332;51.954;20.118;2023-12-20T00:09:48;13.30;;;9.10;;
35847;SDS011;22332;51.954;20.118;2023-12-20T00:12:53;14.20;;;9.40;;
35847;SDS011;22332;51.954;20.118;2023-12-20T00:15:59;12.10;;;7.90;;
35847;SDS011;22332;51.954;20.118;2023-12-20T00:19:05;11.00;;;7.80;;
35847;SDS011;22332;51.954;20.118;2023-12-20T00:22:11;13.00;;;8.40;;
35847;SDS011;22332;51.954;20.118;2023-12-20T00:25:16;13.10;;;8.80;;
35847;SDS011;22332;51.954;20.118;2023-12-20T00:28:22;15.70;;;8.70;;
35847;SDS011;22332;51.954;20.118;2023-12-20T00:31:28;12.10;;;8.50;;
35847;SDS011;22332;51.954;20.118;2023-12-20T00:34:33;12.10;;;8.50;;
35847;SDS011;22332;51.954;20.118;2023-12-20T00:37:39;11.20;;;8.10;;
35847;SDS011;22332;51.954;20.118;2023-12-20T00:40:46;9.50;;;6.80;;
35847;SDS011;22332;51.954;20.118;2023-12-20T00:43:52;11.80;;;8.20;;
35847;SDS011;22332;51.954;20.118;2023-12-20T00:46:58;13.60;;;8.80;;
35847;SDS011;22332;51.954;20.118;2023-12-20T00:50:06;12.10;;;8.50;;
35847;SDS011;22332;51.954;20.118;2023-12-20T00:53:13;12.70;;;9.00;;
35847;SDS011;22332;51.954;20.118;2023-12-20T00:56:18;13.10;;;8.50;;
35847;SDS011;22332;51.954;20.118;2023-12-20T00:59:24;11.10;;;7.90;;
35847;SDS011;22332;51.954;20.118;2023-12-20T01:02:30;11.30;;;7.10;;
35847;SDS011;22332;51.954;20.118;2023-12-20T01:05:37;12.30;;;8.10;;
35847;SDS011;22332;51.954;20.118;2023-12-20T01:08:43;11.10;;;7.80;;
35847;SDS011;22332;51.954;20.118;2023-12-20T01:11:49;12.30;;;8.20;;
35847;SDS011;22332;51.954;20.118;2023-12-20T01:14:54;12.70;;;8.10;;
35847;SDS011;22332;51.954;20.118;2023-12-20T01:18:01;12.00;;;8.10;;
35847;SDS011;22332;51.954;20.118;2023-12-20T01:21:07;12.60;;;8.00;;
35847;SDS011;22332;51.954;20.118;2023-12-20T01:24:13;9.30;;;6.50;;
35847;SDS011;22332;51.954;20.118;2023-12-20T01:27:18;10.10;;;6.70;;
35847;SDS011;22332;51.954;20.118;2023-12-20T01:30:24;12.60;;;7.30;;
35847;SDS011;22332;51.954;20.118;2023-12-20T01:33:30;9.70;;;7.30;;
35847;SDS011;22332;51.954;20.118;2023-12-20T01:36:35;9.80;;;7.30;;
35847;SDS011;22332;51.954;20.118;2023-12-20T01:39:43;11.30;;;7.20;;
35847;SDS011;22332;51.954;20.118;2023-12-20T01:42:48;10.40;;;6.60;;
35847;SDS011;22332;51.954;20.118;2023-12-20T01:46:04;8.60;;;6.40;;
35847;SDS011;22332;51.954;20.118;2023-12-20T01:49:11;10.10;;;7.00;;
35847;SDS011;22332;51.954;20.118;2023-12-20T01:52:18;10.30;;;7.60;;
35847;SDS011;22332;51.954;20.118;2023-12-20T01:55:24;10.40;;;7.60;;
35847;SDS011;22332;51.954;20.118;2023-12-20T01:58:31;9.90;;;7.60;;
35847;SDS011;22332;51.954;20.118;2023-12-20T02:01:37;9.70;;;7.60;;
35847;SDS011;22332;51.954;20.118;2023-12-20T02:04:43;8.80;;;6.40;;
35847;SDS011;22332;51.954;20.118;2023-12-20T02:07:50;8.70;;;6.30;;
35847;SDS011;22332;51.954;20.118;2023-12-20T02:10:55;8.30;;;6.50;;
35847;SDS011;22332;51.954;20.118;2023-12-20T02:14:02;9.90;;;7.10;;
35847;SDS011;22332;51.954;20.118;2023-12-20T02:17:07;9.60;;;7.30;;
35847;SDS011;22332;51.954;20.118;2023-12-20T02:20:13;8.90;;;6.50;;
35847;SDS011;22332;51.954;20.118;2023-12-20T02:23:19;8.20;;;6.20;;
35847;SDS011;22332;51.954;20.118;2023-12-20T02:26:26;8.20;;;6.10;;
35847;SDS011;22332;51.954;20.118;2023-12-20T02:29:31;8.80;;;6.10;;
35847;SDS011;22332;51.954;20.118;2023-12-20T02:32:37;8.90;;;6.20;;
35847;SDS011;22332;51.954;20.118;2023-12-20T02:35:43;8.90;;;6.00;;
35847;SDS011;22332;51.954;20.118;2023-12-20T02:38:50;8.30;;;6.10;;
35847;SDS011;22332;51.954;20.118;2023-12-20T02:41:56;7.70;;;6.00;;
35847;SDS011;22332;51.954;20.118;2023-12-20T02:45:03;9.60;;;6.20;;
35847;SDS011;22332;51.954;20.118;2023-12-20T02:48:09;6.70;;;4.70;;
35847;SDS011;22332;51.954;20.118;2023-12-20T02:51:15;7.70;;;5.40;;
35847;SDS011;22332;51.954;20.118;2023-12-20T02:54:21;6.80;;;5.30;;
35847;SDS011;22332;51.954;20.118;2023-12-20T02:57:27;6.60;;;4.40;;
35847;SDS011;22332;51.954;20.118;2023-12-20T03:00:32;5.80;;;4.50;;
35847;SDS011;22332;51.954;20.118;2023-12-20T03:03:38;5.50;;;4.30;;
35847;SDS011;22332;51.954;20.118;2023-12-20T03:06:43;4.50;;;3.30;;
35847;SDS011;22332;51.954;20.118;2023-12-20T03:09:49;4.60;;;3.00;;
35847;SDS011;22332;51.954;20.118;2023-12-20T03:12:55;4.70;;;3.40;;
35847;SDS011;22332;51.954;20.118;2023-12-20T03:16:00;4.80;;;3.20;;
35847;SDS011;22332;51.954;20.118;2023-12-20T03:19:11;4.90;;;3.40;;
35847;SDS011;22332;51.954;20.118;2023-12-20T03:22:17;4.30;;;3.20;;
35847;SDS011;22332;51.954;20.118;2023-12-20T03:25:23;4.60;;;3.20;;
35847;SDS011;22332;51.954;20.118;2023-12-20T03:28:29;4.90;;;3.00;;
35847;SDS011;22332;51.954;20.118;2023-12-20T03:31:35;6.20;;;3.80;;
35847;SDS011;22332;51.954;20.118;2023-12-20T03:34:43;5.10;;;3.50;;
35847;SDS011;22332;51.954;20.118;2023-12-20T03:37:49;5.60;;;3.90;;
35847;SDS011;22332;51.954;20.118;2023-12-20T03:40:54;5.30;;;4.20;;
35847;SDS011;22332;51.954;20.118;2023-12-20T03:44:00;4.70;;;3.80;;
35847;SDS011;22332;51.954;20.118;2023-12-20T03:47:05;4.70;;;3.50;;
35847;SDS011;22332;51.954;20.118;2023-12-20T03:50:11;4.70;;;3.10;;
35847;SDS011;22332;51.954;20.118;2023-12-20T03:53:17;5.10;;;4.00;;
35847;SDS011;22332;51.954;20.118;2023-12-20T03:56:22;5.60;;;4.10;;
35847;SDS011;22332;51.954;20.118;2023-12-20T03:59:28;5.70;;;4.20;;
35847;SDS011;22332;51.954;20.118;2023-12-20T04:02:34;6.10;;;4.60;;
35847;SDS011;22332;51.954;20.118;2023-12-20T04:05:40;5.50;;;4.60;;
35847;SDS011;22332;51.954;20.118;2023-12-20T04:08:45;5.10;;;4.10;;
35847;SDS011;22332;51.954;20.118;2023-12-20T04:11:51;5.20;;;3.90;;
35847;SDS011;22332;51.954;20.118;2023-12-20T04:14:56;6.20;;;4.60;;
35847;SDS011;22332;51.954;20.118;2023-12-20T04:18:02;5.00;;;4.40;;
35847;SDS011;22332;51.954;20.118;2023-12-20T04:21:08;6.50;;;4.90;;
35847;SDS011;22332;51.954;20.118;2023-12-20T04:24:14;5.80;;;5.00;;
35847;SDS011;22332;51.954;20.118;2023-12-20T04:27:19;5.90;;;4.80;;
35847;SDS011;22332;51.954;20.118;2023-12-20T04:30:25;6.10;;;4.40;;
35847;SDS011;22332;51.954;20.118;2023-12-20T04:33:30;6.00;;;4.30;;
35847;SDS011;22332;51.954;20.118;2023-12-20T04:36:36;5.80;;;4.30;;
35847;SDS011;22332;51.954;20.118;2023-12-20T04:39:42;6.10;;;4.80;;
35847;SDS011;22332;51.954;20.118;2023-12-20T04:42:47;6.40;;;4.90;;
35847;SDS011;22332;51.954;20.118;2023-12-20T04:45:53;6.30;;;4.60;;
35847;SDS011;22332;51.954;20.118;2023-12-20T04:48:59;6.30;;;4.60;;
35847;SDS011;22332;51.954;20.118;2023-12-20T04:52:05;5.50;;;4.30;;
35847;SDS011;22332;51.954;20.118;2023-12-20T04:55:11;4.70;;;3.90;;
35847;SDS011;22332;51.954;20.118;2023-12-20T04:58:16;6.70;;;4.00;;
35847;SDS011;22332;51.954;20.118;2023-12-20T05:01:22;6.30;;;4.20;;
35847;SDS011;22332;51.954;20.118;2023-12-20T05:04:27;7.40;;;5.00;;
35847;SDS011;22332;51.954;20.118;2023-12-20T05:07:33;5.80;;;4.50;;
35847;SDS011;22332;51.954;20.118;2023-12-20T05:10:39;7.60;;;4.60;;
35847;SDS011;22332;51.954;20.118;2023-12-20T05:13:44;6.60;;;4.80;;
35847;SDS011;22332;51.954;20.118;2023-12-20T05:16:50;5.40;;;3.90;;
35847;SDS011;22332;51.954;20.118;2023-12-20T05:19:55;4.50;;;3.40;;
35847;SDS011;22332;51.954;20.118;2023-12-20T05:23:01;5.10;;;3.60;;
35847;SDS011;22332;51.954;20.118;2023-12-20T05:26:07;4.50;;;3.50;;
35847;SDS011;22332;51.954;20.118;2023-12-20T05:29:12;4.90;;;4.00;;
35847;SDS011;22332;51.954;20.118;2023-12-20T05:32:18;4.40;;;3.90;;
35847;SDS011;22332;51.954;20.118;2023-12-20T05:35:23;4.10;;;3.40;;
35847;SDS011;22332;51.954;20.118;2023-12-20T05:38:29;5.10;;;4.20;;
35847;SDS011;22332;51.954;20.118;2023-12-20T05:41:34;4.50;;;4.00;;
35847;SDS011;22332;51.954;20.118;2023-12-20T05:44:40;5.00;;;4.00;;
35847;SDS011;22332;51.954;20.118;2023-12-20T05:47:46;4.20;;;3.30;;
35847;SDS011;22332;51.954;20.118;2023-12-20T05:50:51;4.90;;;3.70;;
35847;SDS011;22332;51.954;20.118;2023-12-20T05:53:57;5.20;;;3.60;;
35847;SDS011;22332;51.954;20.118;2023-12-20T05:57:03;4.60;;;3.50;;
35847;SDS011;22332;51.954;20.118;2023-12-20T06:00:10;4.40;;;3.50;;
35847;SDS011;22332;51.954;20.118;2023-12-20T06:03:17;4.00;;;3.00;;
35847;SDS011;22332;51.954;20.118;2023-12-20T06:06:22;4.30;;;2.80;;
35847;SDS011;22332;51.954;20.118;2023-12-20T06:09:28;4.70;;;3.00;;
35847;SDS011;22332;51.954;20.118;2023-12-20T06:12:34;4.00;;;3.50;;
35847;SDS011;22332;51.954;20.118;2023-12-20T06:15:39;5.50;;;4.80;;
35847;SDS011;22332;51.954;20.118;2023-12-20T06:18:45;5.80;;;4.30;;
35847;SDS011;22332;51.954;20.118;2023-12-20T06:21:50;6.10;;;4.50;;
35847;SDS011;22332;51.954;20.118;2023-12-20T06:24:56;13.30;;;8.50;;
35847;SDS011;22332;51.954;20.118;2023-12-20T06:28:02;22.90;;;11.00;;
35847;SDS011;22332;51.954;20.118;2023-12-20T06:31:08;16.90;;;8.30;;
35847;SDS011;22332;51.954;20.118;2023-12-20T06:34:13;26.00;;;11.80;;
35847;SDS011;22332;51.954;20.118;2023-12-20T06:37:19;17.40;;;8.40;;
35847;SDS011;22332;51.954;20.118;2023-12-20T06:40:25;19.20;;;9.00;;
35847;SDS011;22332;51.954;20.118;2023-12-20T06:43:31;19.10;;;9.30;;
35847;SDS011;22332;51.954;20.118;2023-12-20T06:46:37;30.10;;;13.70;;
35847;SDS011;22332;51.954;20.118;2023-12-20T06:49:42;22.40;;;12.10;;
35847;SDS011;22332;51.954;20.118;2023-12-20T06:52:48;8.10;;;5.50;;
35847;SDS011;22332;51.954;20.118;2023-12-20T06:55:54;11.90;;;6.80;;
35847;SDS011;22332;51.954;20.118;2023-12-20T06:59:00;11.70;;;8.40;;
35847;SDS011;22332;51.954;20.118;2023-12-20T07:02:05;7.20;;;5.20;;
35847;SDS011;22332;51.954;20.118;2023-12-20T07:05:12;6.50;;;5.30;;
35847;SDS011;22332;51.954;20.118;2023-12-20T07:08:19;6.40;;;5.40;;
35847;SDS011;22332;51.954;20.118;2023-12-20T07:11:25;7.70;;;5.60;;
35847;SDS011;22332;51.954;20.118;2023-12-20T07:14:35;6.30;;;4.50;;
35847;SDS011;22332;51.954;20.118;2023-12-20T07:17:41;5.90;;;4.40;;
35847;SDS011;22332;51.954;20.118;2023-12-20T07:20:46;9.10;;;5.70;;
35847;SDS011;22332;51.954;20.118;2023-12-20T07:23:52;7.60;;;5.30;;
35847;SDS011;22332;51.954;20.118;2023-12-20T07:26:58;8.70;;;6.00;;
35847;SDS011;22332;51.954;20.118;2023-12-20T07:30:05;7.10;;;5.50;;
35847;SDS011;22332;51.954;20.118;2023-12-20T07:33:12;6.50;;;5.30;;
35847;SDS011;22332;51.954;20.118;2023-12-20T07:36:18;6.60;;;5.00;;
35847;SDS011;22332;51.954;20.118;2023-12-20T07:39:25;4.10;;;3.70;;
35847;SDS011;22332;51.954;20.118;2023-12-20T07:42:30;5.00;;;3.40;;
35847;SDS011;22332;51.954;20.118;2023-12-20T07:45:39;5.50;;;4.30;;
35847;SDS011;22332;51.954;20.118;2023-12-20T07:48:44;5.30;;;3.90;;
35847;SDS011;22332;51.954;20.118;2023-12-20T07:51:50;6.50;;;5.40;;
35847;SDS011;22332;51.954;20.118;2023-12-20T07:54:55;8.10;;;5.10;;
35847;SDS011;22332;51.954;20.118;2023-12-20T07:58:01;8.10;;;5.00;;
35847;SDS011;22332;51.954;20.118;2023-12-20T08:01:08;4.50;;;3.80;;
35847;SDS011;22332;51.954;20.118;2023-12-20T08:04:14;4.30;;;3.10;;
35847;SDS011;22332;51.954;20.118;2023-12-20T08:07:19;6.00;;;4.00;;
35847;SDS011;22332;51.954;20.118;2023-12-20T08:10:25;5.90;;;4.10;;
35847;SDS011;22332;51.954;20.118;2023-12-20T08:13:32;10.50;;;8.40;;
35847;SDS011;22332;51.954;20.118;2023-12-20T08:16:37;9.20;;;5.80;;
35847;SDS011;22332;51.954;20.118;2023-12-20T08:19:43;5.20;;;4.30;;
35847;SDS011;22332;51.954;20.118;2023-12-20T08:22:49;4.80;;;4.20;;
35847;SDS011;22332;51.954;20.118;2023-12-20T08:25:54;4.50;;;3.30;;
35847;SDS011;22332;51.954;20.118;2023-12-20T08:29:00;4.70;;;3.40;;
35847;SDS011;22332;51.954;20.118;2023-12-20T08:32:06;5.70;;;4.20;;
35847;SDS011;22332;51.954;20.118;2023-12-20T08:35:11;5.60;;;4.50;;
35847;SDS011;22332;51.954;20.118;2023-12-20T08:38:17;6.40;;;4.60;;
35847;SDS011;22332;51.954;20.118;2023-12-20T08:41:23;7.10;;;4.90;;
35847;SDS011;22332;51.954;20.118;2023-12-20T08:44:28;7.80;;;5.30;;
35847;SDS011;22332;51.954;20.118;2023-12-20T08:47:34;7.00;;;4.80;;
35847;SDS011;22332;51.954;20.118;2023-12-20T08:50:39;5.40;;;3.90;;
35847;SDS011;22332;51.954;20.118;2023-12-20T08:53:45;4.70;;;3.40;;
35847;SDS011;22332;51.954;20.118;2023-12-20T08:56:52;6.30;;;4.20;;
35847;SDS011;22332;51.954;20.118;2023-12-20T08:59:57;6.20;;;4.60;;
35847;SDS011;22332;51.954;20.118;2023-12-20T09:03:03;6.80;;;4.50;;
35847;SDS011;22332;51.954;20.118;2023-12-20T09:06:09;5.90;;;4.20;;
35847;SDS011;22332;51.954;20.118;2023-12-20T09:09:15;6.50;;;4.60;;
35847;SDS011;22332;51.954;20.118;2023-12-20T09:12:20;8.30;;;5.40;;
35847;SDS011;22332;51.954;20.118;2023-12-20T09:15:26;7.10;;;4.10;;
35847;SDS011;22332;51.954;20.118;2023-12-20T09:18:33;6.30;;;4.00;;
35847;SDS011;22332;51.954;20.118;2023-12-20T09:21:38;4.90;;;3.70;;
35847;SDS011;22332;51.954;20.118;2023-12-20T09:24:44;6.20;;;3.90;;
35847;SDS011;22332;51.954;20.118;2023-12-20T09:27:49;4.90;;;3.90;;
35847;SDS011;22332;51.954;20.118;2023-12-20T09:30:55;6.60;;;4.20;;
35847;SDS011;22332;51.954;20.118;2023-12-20T09:34:00;4.70;;;3.90;;
35847;SDS011;22332;51.954;20.118;2023-12-20T09:37:06;5.00;;;3.10;;
35847;SDS011;22332;51.954;20.118;2023-12-20T09:40:12;4.10;;;2.80;;
35847;SDS011;22332;51.954;20.118;2023-12-20T09:43:22;8.00;;;4.40;;
35847;SDS011;22332;51.954;20.118;2023-12-20T09:46:32;11.40;;;8.30;;
35847;SDS011;22332;51.954;20.118;2023-12-20T09:49:38;9.80;;;5.20;;
35847;SDS011;22332;51.954;20.118;2023-12-20T09:52:47;10.50;;;6.90;;
35847;SDS011;22332;51.954;20.118;2023-12-20T09:55:55;12.00;;;6.50;;
35847;SDS011;22332;51.954;20.118;2023-12-20T09:59:04;7.00;;;3.80;;
35847;SDS011;22332;51.954;20.118;2023-12-20T10:02:11;5.40;;;3.60;;
35847;SDS011;22332;51.954;20.118;2023-12-20T10:05:18;6.70;;;4.70;;
35847;SDS011;22332;51.954;20.118;2023-12-20T10:11:38;5.20;;;3.50;;
35847;SDS011;22332;51.954;20.118;2023-12-20T10:14:45;13.70;;;7.90;;
35847;SDS011;22332;51.954;20.118;2023-12-20T10:17:50;11.70;;;7.30;;
35847;SDS011;22332;51.954;20.118;2023-12-20T10:20:57;9.60;;;5.90;;
35847;SDS011;22332;51.954;20.118;2023-12-20T10:24:04;8.60;;;4.70;;
35847;SDS011;22332;51.954;20.118;2023-12-20T10:27:10;7.80;;;4.40;;
35847;SDS011;22332;51.954;20.118;2023-12-20T10:30:16;6.70;;;3.80;;
35847;SDS011;22332;51.954;20.118;2023-12-20T10:33:24;6.60;;;4.10;;
35847;SDS011;22332;51.954;20.118;2023-12-20T10:36:32;8.40;;;4.50;;
35847;SDS011;22332;51.954;20.118;2023-12-20T10:39:39;11.40;;;4.50;;
35847;SDS011;22332;51.954;20.118;2023-12-20T10:42:46;9.40;;;4.80;;
35847;SDS011;22332;51.954;20.118;2023-12-20T10:45:54;8.70;;;4.30;;
35847;SDS011;22332;51.954;20.118;2023-12-20T10:49:00;12.50;;;5.00;;
35847;SDS011;22332;51.954;20.118;2023-12-20T10:52:08;15.60;;;7.20;;
35847;SDS011;22332;51.954;20.118;2023-12-20T10:55:15;12.30;;;7.20;;
35847;SDS011;22332;51.954;20.118;2023-12-20T10:58:21;11.70;;;6.90;;
35847;SDS011;22332;51.954;20.118;2023-12-20T11:01:28;10.60;;;7.10;;
35847;SDS011;22332;51.954;20.118;2023-12-20T11:04:36;11.60;;;7.50;;
35847;SDS011;22332;51.954;20.118;2023-12-20T11:07:52;9.30;;;6.60;;
35847;SDS011;22332;51.954;20.118;2023-12-20T11:11:04;8.50;;;5.30;;
35847;SDS011;22332;51.954;20.118;2023-12-20T11:14:18;8.70;;;5.90;;
35847;SDS011;22332;51.954;20.118;2023-12-20T11:17:27;7.10;;;4.60;;
35847;SDS011;22332;51.954;20.118;2023-12-20T11:20:36;5.20;;;3.30;;
35847;SDS011;22332;51.954;20.118;2023-12-20T11:23:43;3.60;;;2.80;;
35847;SDS011;22332;51.954;20.118;2023-12-20T11:26:48;3.80;;;2.60;;
35847;SDS011;22332;51.954;20.118;2023-12-20T11:29:59;5.10;;;2.80;;
35847;SDS011;22332;51.954;20.118;2023-12-20T11:33:08;4.60;;;3.20;;
35847;SDS011;22332;51.954;20.118;2023-12-20T11:36:14;5.80;;;3.80;;
35847;SDS011;22332;51.954;20.118;2023-12-20T11:39:23;6.20;;;3.70;;
35847;SDS011;22332;51.954;20.118;2023-12-20T11:42:33;7.70;;;3.70;;
35847;SDS011;22332;51.954;20.118;2023-12-20T11:45:49;4.50;;;3.20;;
35847;SDS011;22332;51.954;20.118;2023-12-20T11:48:54;5.70;;;2.90;;
35847;SDS011;22332;51.954;20.118;2023-12-20T11:52:00;8.20;;;4.30;;
35847;SDS011;22332;51.954;20.118;2023-12-20T11:55:06;8.10;;;3.60;;
35847;SDS011;22332;51.954;20.118;2023-12-20T11:58:12;12.80;;;6.60;;
35847;SDS011;22332;51.954;20.118;2023-12-20T12:01:20;12.10;;;6.80;;
35847;SDS011;22332;51.954;20.118;2023-12-20T12:04:26;8.70;;;4.90;;
35847;SDS011;22332;51.954;20.118;2023-12-20T12:07:31;9.40;;;5.50;;
35847;SDS011;22332;51.954;20.118;2023-12-20T12:10:37;12.50;;;8.50;;
35847;SDS011;22332;51.954;20.118;2023-12-20T12:13:43;6.40;;;4.30;;
35847;SDS011;22332;51.954;20.118;2023-12-20T12:16:49;59.90;;;40.30;;
35847;SDS011;22332;51.954;20.118;2023-12-20T12:20:03;91.40;;;42.30;;
35847;SDS011;22332;51.954;20.118;2023-12-20T12:23:10;24.80;;;13.10;;
35847;SDS011;22332;51.954;20.118;2023-12-20T12:26:16;133.90;;;76.00;;
35847;SDS011;22332;51.954;20.118;2023-12-20T12:29:21;29.30;;;20.80;;
35847;SDS011;22332;51.954;20.118;2023-12-20T12:32:28;98.10;;;73.20;;
35847;SDS011;22332;51.954;20.118;2023-12-20T12:35:35;227.80;;;168.20;;
35847;SDS011;22332;51.954;20.118;2023-12-20T12:38:41;47.20;;;28.70;;
35847;SDS011;22332;51.954;20.118;2023-12-20T12:41:47;22.90;;;13.30;;
35847;SDS011;22332;51.954;20.118;2023-12-20T12:44:52;19.80;;;12.10;;
35847;SDS011;22332;51.954;20.118;2023-12-20T12:47:58;10.50;;;7.90;;
35847;SDS011;22332;51.954;20.118;2023-12-20T12:51:04;25.60;;;14.30;;
35847;SDS011;22332;51.954;20.118;2023-12-20T12:54:10;16.00;;;7.40;;
35847;SDS011;22332;51.954;20.118;2023-12-20T12:57:19;10.50;;;7.10;;
35847;SDS011;22332;51.954;20.118;2023-12-20T13:00:25;11.00;;;7.90;;
35847;SDS011;22332;51.954;20.118;2023-12-20T13:03:30;133.60;;;68.00;;
35847;SDS011;22332;51.954;20.118;2023-12-20T13:06:37;328.00;;;133.30;;
35847;SDS011;22332;51.954;20.118;2023-12-20T13:09:43;514.10;;;210.40;;
35847;SDS011;22332;51.954;20.118;2023-12-20T13:12:49;374.90;;;148.60;;
35847;SDS011;22332;51.954;20.118;2023-12-20T13:15:55;271.70;;;120.20;;
35847;SDS011;22332;51.954;20.118;2023-12-20T13:19:00;249.50;;;118.40;;
35847;SDS011;22332;51.954;20.118;2023-12-20T13:22:06;72.00;;;38.50;;
35847;SDS011;22332;51.954;20.118;2023-12-20T13:25:12;27.40;;;14.60;;
35847;SDS011;22332;51.954;20.118;2023-12-20T13:28:18;13.90;;;7.70;;
35847;SDS011;22332;51.954;20.118;2023-12-20T13:31:24;11.20;;;7.00;;
35847;SDS011;22332;51.954;20.118;2023-12-20T13:34:30;13.00;;;7.10;;
35847;SDS011;22332;51.954;20.118;2023-12-20T13:37:35;13.20;;;7.40;;
35847;SDS011;22332;51.954;20.118;2023-12-20T13:40:42;11.60;;;6.30;;
35847;SDS011;22332;51.954;20.118;2023-12-20T13:43:48;14.00;;;9.40;;
35847;SDS011;22332;51.954;20.118;2023-12-20T13:46:53;17.10;;;8.90;;
35847;SDS011;22332;51.954;20.118;2023-12-20T13:49:59;12.60;;;6.60;;
35847;SDS011;22332;51.954;20.118;2023-12-20T13:53:05;20.60;;;11.10;;
35847;SDS011;22332;51.954;20.118;2023-12-20T13:56:10;13.60;;;7.20;;
35847;SDS011;22332;51.954;20.118;2023-12-20T13:59:16;12.60;;;6.80;;
35847;SDS011;22332;51.954;20.118;2023-12-20T14:02:21;177.30;;;89.00;;
35847;SDS011;22332;51.954;20.118;2023-12-20T14:05:27;223.50;;;91.70;;
35847;SDS011;22332;51.954;20.118;2023-12-20T14:08:33;140.10;;;53.80;;
35847;SDS011;22332;51.954;20.118;2023-12-20T14:11:39;663.00;;;296.10;;
35847;SDS011;22332;51.954;20.118;2023-12-20T14:14:45;257.00;;;83.50;;
35847;SDS011;22332;51.954;20.118;2023-12-20T14:17:51;400.20;;;147.40;;
35847;SDS011;22332;51.954;20.118;2023-12-20T14:20:57;590.00;;;244.30;;
35847;SDS011;22332;51.954;20.118;2023-12-20T14:24:03;660.00;;;297.30;;
35847;SDS011;22332;51.954;20.118;2023-12-20T14:27:09;566.50;;;257.90;;
35847;SDS011;22332;51.954;20.118;2023-12-20T14:30:15;792.10;;;395.50;;
35847;SDS011;22332;51.954;20.118;2023-12-20T14:33:21;919.30;;;353.40;;
35847;SDS011;22332;51.954;20.118;2023-12-20T14:36:27;990.20;;;396.80;;
35847;SDS011;22332;51.954;20.118;2023-12-20T14:39:33;1162.30;;;493.60;;
35847;SDS011;22332;51.954;20.118;2023-12-20T14:42:42;1027.30;;;410.40;;
35847;SDS011;22332;51.954;20.118;2023-12-20T14:45:51;592.50;;;207.10;;
35847;SDS011;22332;51.954;20.118;2023-12-20T14:49:01;546.50;;;171.00;;
35847;SDS011;22332;51.954;20.118;2023-12-20T14:52:07;701.20;;;254.60;;
35847;SDS011;22332;51.954;20.118;2023-12-20T14:55:15;162.20;;;53.10;;
35847;SDS011;22332;51.954;20.118;2023-12-20T14:58:20;702.80;;;303.00;;
35847;SDS011;22332;51.954;20.118;2023-12-20T15:01:29;236.30;;;92.30;;
35847;SDS011;22332;51.954;20.118;2023-12-20T15:04:35;127.70;;;62.70;;
35847;SDS011;22332;51.954;20.118;2023-12-20T15:07:41;98.80;;;46.90;;
35847;SDS011;22332;51.954;20.118;2023-12-20T15:10:46;75.90;;;45.40;;
35847;SDS011;22332;51.954;20.118;2023-12-20T15:13:53;65.40;;;38.90;;
35847;SDS011;22332;51.954;20.118;2023-12-20T15:17:00;37.30;;;18.90;;
35847;SDS011;22332;51.954;20.118;2023-12-20T15:20:06;22.80;;;15.10;;
35847;SDS011;22332;51.954;20.118;2023-12-20T15:23:13;33.60;;;20.10;;
35847;SDS011;22332;51.954;20.118;2023-12-20T15:26:20;26.30;;;17.20;;
35847;SDS011;22332;51.954;20.118;2023-12-20T15:29:25;17.00;;;8.70;;
35847;SDS011;22332;51.954;20.118;2023-12-20T15:32:31;73.60;;;44.00;;
35847;SDS011;22332;51.954;20.118;2023-12-20T15:35:39;14.80;;;8.10;;
35847;SDS011;22332;51.954;20.118;2023-12-20T15:38:45;10.90;;;5.20;;
35847;SDS011;22332;51.954;20.118;2023-12-20T15:41:50;12.10;;;5.50;;
35847;SDS011;22332;51.954;20.118;2023-12-20T15:44:56;10.20;;;5.00;;
35847;SDS011;22332;51.954;20.118;2023-12-20T15:48:03;9.60;;;4.50;;
35847;SDS011;22332;51.954;20.118;2023-12-20T15:51:10;9.70;;;4.20;;
35847;SDS011;22332;51.954;20.118;2023-12-20T15:54:15;7.30;;;4.10;;
35847;SDS011;22332;51.954;20.118;2023-12-20T15:57:21;8.00;;;3.90;;
35847;SDS011;22332;51.954;20.118;2023-12-20T16:00:27;226.30;;;106.60;;
35847;SDS011;22332;51.954;20.118;2023-12-20T16:03:33;135.60;;;51.50;;
35847;SDS011;22332;51.954;20.118;2023-12-20T16:06:39;626.50;;;272.20;;
35847;SDS011;22332;51.954;20.118;2023-12-20T16:09:44;391.60;;;137.40;;
35847;SDS011;22332;51.954;20.118;2023-12-20T16:12:50;425.20;;;146.20;;
35847;SDS011;22332;51.954;20.118;2023-12-20T16:15:55;737.40;;;266.50;;
35847;SDS011;22332;51.954;20.118;2023-12-20T16:19:01;556.80;;;184.70;;
35847;SDS011;22332;51.954;20.118;2023-12-20T16:22:07;425.50;;;128.60;;
35847;SDS011;22332;51.954;20.118;2023-12-20T16:25:13;432.00;;;146.20;;
35847;SDS011;22332;51.954;20.118;2023-12-20T16:28:18;193.20;;;55.20;;
35847;SDS011;22332;51.954;20.118;2023-12-20T16:31:24;558.00;;;189.00;;
35847;SDS011;22332;51.954;20.118;2023-12-20T16:34:30;665.90;;;243.30;;
35847;SDS011;22332;51.954;20.118;2023-12-20T16:37:35;758.20;;;302.70;;
35847;SDS011;22332;51.954;20.118;2023-12-20T16:40:41;438.50;;;159.80;;
35847;SDS011;22332;51.954;20.118;2023-12-20T16:43:47;263.40;;;89.30;;
35847;SDS011;22332;51.954;20.118;2023-12-20T16:46:53;175.50;;;66.60;;
35847;SDS011;22332;51.954;20.118;2023-12-20T16:49:58;344.80;;;146.40;;
35847;SDS011;22332;51.954;20.118;2023-12-20T16:53:07;138.50;;;55.00;;
35847;SDS011;22332;51.954;20.118;2023-12-20T16:56:21;82.40;;;35.40;;
35847;SDS011;22332;51.954;20.118;2023-12-20T16:59:27;45.40;;;24.60;;
35847;SDS011;22332;51.954;20.118;2023-12-20T17:02:32;21.80;;;12.40;;
35847;SDS011;22332;51.954;20.118;2023-12-20T17:05:38;18.80;;;11.10;;
35847;SDS011;22332;51.954;20.118;2023-12-20T17:08:43;19.20;;;12.50;;
35847;SDS011;22332;51.954;20.118;2023-12-20T17:11:49;18.60;;;11.20;;
35847;SDS011;22332;51.954;20.118;2023-12-20T17:14:54;18.30;;;11.30;;
35847;SDS011;22332;51.954;20.118;2023-12-20T17:18:02;11.20;;;6.30;;
35847;SDS011;22332;51.954;20.118;2023-12-20T17:21:08;26.90;;;14.00;;
35847;SDS011;22332;51.954;20.118;2023-12-20T17:24:14;23.40;;;15.80;;
35847;SDS011;22332;51.954;20.118;2023-12-20T17:27:19;30.90;;;20.20;;
35847;SDS011;22332;51.954;20.118;2023-12-20T17:30:26;24.40;;;15.40;;
35847;SDS011;22332;51.954;20.118;2023-12-20T17:33:31;16.50;;;11.00;;
35847;SDS011;22332;51.954;20.118;2023-12-20T17:36:37;9.10;;;4.90;;
35847;SDS011;22332;51.954;20.118;2023-12-20T17:39:43;9.50;;;4.40;;
35847;SDS011;22332;51.954;20.118;2023-12-20T17:42:49;9.40;;;4.40;;
35847;SDS011;22332;51.954;20.118;2023-12-20T17:45:55;7.50;;;4.00;;
35847;SDS011;22332;51.954;20.118;2023-12-20T17:49:00;8.20;;;3.70;;
35847;SDS011;22332;51.954;20.118;2023-12-20T17:52:07;8.10;;;3.80;;
35847;SDS011;22332;51.954;20.118;2023-12-20T17:55:12;6.80;;;3.50;;
35847;SDS011;22332;51.954;20.118;2023-12-20T17:58:18;8.40;;;3.60;;
35847;SDS011;22332;51.954;20.118;2023-12-20T18:01:23;8.00;;;3.90;;
35847;SDS011;22332;51.954;20.118;2023-12-20T18:04:29;10.90;;;3.50;;
35847;SDS011;22332;51.954;20.118;2023-12-20T18:07:34;7.90;;;3.50;;
35847;SDS011;22332;51.954;20.118;2023-12-20T18:10:41;8.90;;;3.90;;
35847;SDS011;22332;51.954;20.118;2023-12-20T18:13:46;8.60;;;3.90;;